sensor_id;sensor_type;location;lat;lon;timestamp;P1;durP1;ratioP1;P2;durP2;ratioP2
61085;SDS011;46967;48.876;2.136;2024-01-30T00:01:38;5.53;;;3.00;;
61085;SDS011;46967;48.876;2.136;2024-01-30T00:04:03;7.43;;;3.17;;
61085;SDS011;46967;48.876;2.136;2024-01-30T00:06:29;6.30;;;2.92;;
61085;SDS011;46967;48.876;2.136;2024-01-30T00:08:54;5.47;;;2.85;;
61085;SDS011;46967;48.876;2.136;2024-01-30T00:11:19;5.45;;;3.20;;
61085;SDS011;46967;48.876;2.136;2024-01-30T00:13:45;5.60;;;2.90;;
61085;SDS011;46967;48.876;2.136;2024-01-30T00:16:23;6.50;;;3.40;;
61085;SDS011;46967;48.876;2.136;2024-01-30T00:18:52;5.05;;;3.00;;
61085;SDS011;46967;48.876;2.136;2024-01-30T00:21:18;4.82;;;2.80;;
61085;SDS011;46967;48.876;2.136;2024-01-30T00:23:44;5.68;;;3.05;;
61085;SDS011;46967;48.876;2.136;2024-01-30T00:26:09;6.43;;;3.15;;
61085;SDS011;46967;48.876;2.136;2024-01-30T00:28:35;6.82;;;3.40;;
61085;SDS011;46967;48.876;2.136;2024-01-30T00:31:00;6.20;;;3.20;;
61085;SDS011;46967;48.876;2.136;2024-01-30T00:33:25;5.75;;;3.20;;
61085;SDS011;46967;48.876;2.136;2024-01-30T00:35:51;4.50;;;3.05;;
61085;SDS011;46967;48.876;2.136;2024-01-30T00:38:16;5.38;;;2.85;;
61085;SDS011;46967;48.876;2.136;2024-01-30T00:40:41;4.75;;;2.95;;
61085;SDS011;46967;48.876;2.136;2024-01-30T00:43:07;5.30;;;2.90;;
61085;SDS011;46967;48.876;2.136;2024-01-30T00:45:32;5.05;;;2.72;;
61085;SDS011;46967;48.876;2.136;2024-01-30T00:47:57;4.57;;;2.45;;
61085;SDS011;46967;48.876;2.136;2024-01-30T00:50:23;5.88;;;2.78;;
61085;SDS011;46967;48.876;2.136;2024-01-30T00:52:48;6.78;;;2.97;;
61085;SDS011;46967;48.876;2.136;2024-01-30T00:55:13;5.28;;;2.65;;
61085;SDS011;46967;48.876;2.136;2024-01-30T00:57:39;4.22;;;2.50;;
61085;SDS011;46967;48.876;2.136;2024-01-30T01:00:05;5.75;;;2.67;;
61085;SDS011;46967;48.876;2.136;2024-01-30T01:02:33;5.85;;;2.50;;
61085;SDS011;46967;48.876;2.136;2024-01-30T01:05:02;5.45;;;2.97;;
61085;SDS011;46967;48.876;2.136;2024-01-30T01:07:27;4.97;;;2.45;;
61085;SDS011;46967;48.876;2.136;2024-01-30T01:09:53;4.97;;;2.55;;
61085;SDS011;46967;48.876;2.136;2024-01-30T01:12:18;7.70;;;2.67;;
61085;SDS011;46967;48.876;2.136;2024-01-30T01:14:43;4.75;;;2.60;;
61085;SDS011;46967;48.876;2.136;2024-01-30T01:17:09;4.10;;;2.65;;
61085;SDS011;46967;48.876;2.136;2024-01-30T01:19:34;4.18;;;2.45;;
61085;SDS011;46967;48.876;2.136;2024-01-30T01:21:59;6.88;;;2.53;;
61085;SDS011;46967;48.876;2.136;2024-01-30T01:24:25;3.90;;;2.17;;
61085;SDS011;46967;48.876;2.136;2024-01-30T01:26:50;9.35;;;2.90;;
61085;SDS011;46967;48.876;2.136;2024-01-30T01:29:15;8.07;;;2.60;;
61085;SDS011;46967;48.876;2.136;2024-01-30T01:31:41;4.22;;;2.20;;
61085;SDS011;46967;48.876;2.136;2024-01-30T01:34:12;6.80;;;2.30;;
61085;SDS011;46967;48.876;2.136;2024-01-30T01:36:38;3.90;;;2.25;;
61085;SDS011;46967;48.876;2.136;2024-01-30T01:39:04;4.35;;;2.40;;
61085;SDS011;46967;48.876;2.136;2024-01-30T01:41:30;6.38;;;2.40;;
61085;SDS011;46967;48.876;2.136;2024-01-30T01:43:56;4.97;;;2.30;;
61085;SDS011;46967;48.876;2.136;2024-01-30T01:46:22;5.32;;;2.38;;
61085;SDS011;46967;48.876;2.136;2024-01-30T01:48:47;8.20;;;2.80;;
61085;SDS011;46967;48.876;2.136;2024-01-30T01:51:13;4.35;;;2.53;;
61085;SDS011;46967;48.876;2.136;2024-01-30T01:53:39;5.07;;;2.50;;
61085;SDS011;46967;48.876;2.136;2024-01-30T01:56:05;4.68;;;2.30;;
61085;SDS011;46967;48.876;2.136;2024-01-30T01:58:31;6.70;;;2.50;;
61085;SDS011;46967;48.876;2.136;2024-01-30T02:00:56;6.55;;;3.00;;
61085;SDS011;46967;48.876;2.136;2024-01-30T02:03:23;3.70;;;2.35;;
61085;SDS011;46967;48.876;2.136;2024-01-30T02:05:50;5.88;;;2.60;;
61085;SDS011;46967;48.876;2.136;2024-01-30T02:08:16;5.40;;;2.42;;
61085;SDS011;46967;48.876;2.136;2024-01-30T02:10:41;5.75;;;2.80;;
61085;SDS011;46967;48.876;2.136;2024-01-30T02:13:06;5.93;;;2.80;;
61085;SDS011;46967;48.876;2.136;2024-01-30T02:15:32;6.50;;;2.67;;
61085;SDS011;46967;48.876;2.136;2024-01-30T02:17:57;5.10;;;2.67;;
61085;SDS011;46967;48.876;2.136;2024-01-30T02:20:23;6.40;;;2.67;;
61085;SDS011;46967;48.876;2.136;2024-01-30T02:22:50;7.38;;;2.33;;
61085;SDS011;46967;48.876;2.136;2024-01-30T02:25:19;7.20;;;2.70;;
61085;SDS011;46967;48.876;2.136;2024-01-30T02:27:44;4.93;;;2.45;;
61085;SDS011;46967;48.876;2.136;2024-01-30T02:30:10;5.50;;;2.60;;
61085;SDS011;46967;48.876;2.136;2024-01-30T02:32:36;5.50;;;2.80;;
61085;SDS011;46967;48.876;2.136;2024-01-30T02:35:01;5.93;;;3.08;;
61085;SDS011;46967;48.876;2.136;2024-01-30T02:37:26;4.35;;;2.65;;
61085;SDS011;46967;48.876;2.136;2024-01-30T02:39:52;6.18;;;2.78;;
61085;SDS011;46967;48.876;2.136;2024-01-30T02:42:17;5.40;;;2.78;;
61085;SDS011;46967;48.876;2.136;2024-01-30T02:44:42;5.30;;;2.70;;
61085;SDS011;46967;48.876;2.136;2024-01-30T02:47:08;6.60;;;2.60;;
61085;SDS011;46967;48.876;2.136;2024-01-30T02:49:33;6.70;;;3.00;;
61085;SDS011;46967;48.876;2.136;2024-01-30T02:51:58;6.82;;;2.50;;
61085;SDS011;46967;48.876;2.136;2024-01-30T02:54:24;5.53;;;2.80;;
61085;SDS011;46967;48.876;2.136;2024-01-30T02:56:49;7.18;;;2.95;;
61085;SDS011;46967;48.876;2.136;2024-01-30T02:59:14;5.38;;;2.63;;
61085;SDS011;46967;48.876;2.136;2024-01-30T03:01:43;8.45;;;3.08;;
61085;SDS011;46967;48.876;2.136;2024-01-30T03:04:09;6.05;;;2.67;;
61085;SDS011;46967;48.876;2.136;2024-01-30T03:06:34;7.55;;;2.60;;
61085;SDS011;46967;48.876;2.136;2024-01-30T03:09:00;5.00;;;2.88;;
61085;SDS011;46967;48.876;2.136;2024-01-30T03:11:25;9.18;;;2.90;;
61085;SDS011;46967;48.876;2.136;2024-01-30T03:13:50;7.50;;;3.38;;
61085;SDS011;46967;48.876;2.136;2024-01-30T03:16:16;8.18;;;3.00;;
61085;SDS011;46967;48.876;2.136;2024-01-30T03:18:41;5.15;;;2.55;;
61085;SDS011;46967;48.876;2.136;2024-01-30T03:21:07;9.63;;;3.20;;
61085;SDS011;46967;48.876;2.136;2024-01-30T03:23:32;4.78;;;2.83;;
61085;SDS011;46967;48.876;2.136;2024-01-30T03:25:57;5.75;;;2.80;;
61085;SDS011;46967;48.876;2.136;2024-01-30T03:28:23;6.20;;;2.78;;
61085;SDS011;46967;48.876;2.136;2024-01-30T03:30:48;5.25;;;3.00;;
61085;SDS011;46967;48.876;2.136;2024-01-30T03:33:13;8.80;;;3.20;;
61085;SDS011;46967;48.876;2.136;2024-01-30T03:35:39;6.22;;;2.78;;
61085;SDS011;46967;48.876;2.136;2024-01-30T03:38:04;5.57;;;2.97;;
61085;SDS011;46967;48.876;2.136;2024-01-30T03:40:29;7.90;;;3.05;;
61085;SDS011;46967;48.876;2.136;2024-01-30T03:42:55;5.35;;;2.88;;
61085;SDS011;46967;48.876;2.136;2024-01-30T03:45:20;8.98;;;3.20;;
61085;SDS011;46967;48.876;2.136;2024-01-30T03:47:45;9.07;;;3.35;;
61085;SDS011;46967;48.876;2.136;2024-01-30T03:50:10;7.03;;;3.38;;
61085;SDS011;46967;48.876;2.136;2024-01-30T03:52:36;8.02;;;3.05;;
61085;SDS011;46967;48.876;2.136;2024-01-30T03:55:01;5.70;;;2.90;;
61085;SDS011;46967;48.876;2.136;2024-01-30T03:57:27;6.22;;;2.90;;
61085;SDS011;46967;48.876;2.136;2024-01-30T03:59:52;7.07;;;3.30;;
61085;SDS011;46967;48.876;2.136;2024-01-30T04:02:18;8.48;;;3.40;;
61085;SDS011;46967;48.876;2.136;2024-01-30T04:04:43;8.02;;;3.00;;
61085;SDS011;46967;48.876;2.136;2024-01-30T04:07:08;5.93;;;2.75;;
61085;SDS011;46967;48.876;2.136;2024-01-30T04:09:34;8.68;;;3.60;;
61085;SDS011;46967;48.876;2.136;2024-01-30T04:11:59;6.50;;;2.78;;
61085;SDS011;46967;48.876;2.136;2024-01-30T04:14:25;7.03;;;3.47;;
61085;SDS011;46967;48.876;2.136;2024-01-30T04:16:50;8.93;;;3.40;;
61085;SDS011;46967;48.876;2.136;2024-01-30T04:19:15;7.05;;;3.00;;
61085;SDS011;46967;48.876;2.136;2024-01-30T04:21:41;9.55;;;3.30;;
61085;SDS011;46967;48.876;2.136;2024-01-30T04:24:06;10.38;;;3.83;;
61085;SDS011;46967;48.876;2.136;2024-01-30T04:26:31;7.45;;;3.28;;
61085;SDS011;46967;48.876;2.136;2024-01-30T04:28:57;6.88;;;3.40;;
61085;SDS011;46967;48.876;2.136;2024-01-30T04:31:22;5.93;;;3.20;;
61085;SDS011;46967;48.876;2.136;2024-01-30T04:33:47;6.70;;;3.08;;
61085;SDS011;46967;48.876;2.136;2024-01-30T04:36:12;7.22;;;3.38;;
61085;SDS011;46967;48.876;2.136;2024-01-30T04:38:38;6.85;;;3.40;;
61085;SDS011;46967;48.876;2.136;2024-01-30T04:41:04;7.90;;;3.20;;
61085;SDS011;46967;48.876;2.136;2024-01-30T04:43:29;8.05;;;3.47;;
61085;SDS011;46967;48.876;2.136;2024-01-30T04:45:55;6.25;;;3.38;;
61085;SDS011;46967;48.876;2.136;2024-01-30T04:48:21;7.30;;;3.53;;
61085;SDS011;46967;48.876;2.136;2024-01-30T04:50:46;9.57;;;3.72;;
61085;SDS011;46967;48.876;2.136;2024-01-30T04:53:11;9.98;;;4.10;;
61085;SDS011;46967;48.876;2.136;2024-01-30T04:55:36;12.32;;;3.72;;
61085;SDS011;46967;48.876;2.136;2024-01-30T04:58:02;7.75;;;3.60;;
61085;SDS011;46967;48.876;2.136;2024-01-30T05:00:27;8.85;;;3.67;;
61085;SDS011;46967;48.876;2.136;2024-01-30T05:02:54;10.13;;;3.30;;
61085;SDS011;46967;48.876;2.136;2024-01-30T05:05:20;8.80;;;3.35;;
61085;SDS011;46967;48.876;2.136;2024-01-30T05:07:46;5.90;;;3.00;;
61085;SDS011;46967;48.876;2.136;2024-01-30T05:10:12;7.63;;;3.55;;
61085;SDS011;46967;48.876;2.136;2024-01-30T05:12:38;6.65;;;3.45;;
61085;SDS011;46967;48.876;2.136;2024-01-30T05:15:04;5.63;;;3.08;;
61085;SDS011;46967;48.876;2.136;2024-01-30T05:17:29;7.07;;;3.38;;
61085;SDS011;46967;48.876;2.136;2024-01-30T05:19:55;11.43;;;3.67;;
61085;SDS011;46967;48.876;2.136;2024-01-30T05:22:20;7.10;;;3.50;;
61085;SDS011;46967;48.876;2.136;2024-01-30T05:24:45;8.90;;;3.58;;
61085;SDS011;46967;48.876;2.136;2024-01-30T05:27:10;9.75;;;3.13;;
61085;SDS011;46967;48.876;2.136;2024-01-30T05:29:38;6.18;;;3.45;;
61085;SDS011;46967;48.876;2.136;2024-01-30T05:32:04;7.00;;;3.15;;
61085;SDS011;46967;48.876;2.136;2024-01-30T05:34:30;9.38;;;3.78;;
61085;SDS011;46967;48.876;2.136;2024-01-30T05:36:56;6.13;;;3.05;;
61085;SDS011;46967;48.876;2.136;2024-01-30T05:39:21;9.23;;;3.40;;
61085;SDS011;46967;48.876;2.136;2024-01-30T05:41:46;5.97;;;3.20;;
61085;SDS011;46967;48.876;2.136;2024-01-30T05:44:11;5.90;;;2.88;;
61085;SDS011;46967;48.876;2.136;2024-01-30T05:46:37;7.18;;;3.22;;
61085;SDS011;46967;48.876;2.136;2024-01-30T05:49:02;9.38;;;3.35;;
61085;SDS011;46967;48.876;2.136;2024-01-30T05:51:29;6.75;;;3.75;;
61085;SDS011;46967;48.876;2.136;2024-01-30T05:53:54;7.57;;;3.22;;
61085;SDS011;46967;48.876;2.136;2024-01-30T05:56:19;9.57;;;3.55;;
61085;SDS011;46967;48.876;2.136;2024-01-30T05:58:45;7.93;;;3.17;;
61085;SDS011;46967;48.876;2.136;2024-01-30T06:01:10;7.45;;;3.67;;
61085;SDS011;46967;48.876;2.136;2024-01-30T06:03:35;9.50;;;3.13;;
61085;SDS011;46967;48.876;2.136;2024-01-30T06:06:01;7.90;;;3.28;;
61085;SDS011;46967;48.876;2.136;2024-01-30T06:08:26;7.03;;;3.35;;
61085;SDS011;46967;48.876;2.136;2024-01-30T06:10:51;6.38;;;3.10;;
61085;SDS011;46967;48.876;2.136;2024-01-30T06:13:17;6.00;;;3.42;;
61085;SDS011;46967;48.876;2.136;2024-01-30T06:15:42;8.80;;;3.35;;
61085;SDS011;46967;48.876;2.136;2024-01-30T06:18:08;5.68;;;3.33;;
61085;SDS011;46967;48.876;2.136;2024-01-30T06:20:33;10.23;;;3.80;;
61085;SDS011;46967;48.876;2.136;2024-01-30T06:22:59;10.60;;;3.53;;
61085;SDS011;46967;48.876;2.136;2024-01-30T06:25:24;8.43;;;3.88;;
61085;SDS011;46967;48.876;2.136;2024-01-30T06:27:50;6.90;;;3.65;;
61085;SDS011;46967;48.876;2.136;2024-01-30T06:30:15;5.03;;;3.10;;
61085;SDS011;46967;48.876;2.136;2024-01-30T06:32:40;12.82;;;3.65;;
61085;SDS011;46967;48.876;2.136;2024-01-30T06:35:06;8.90;;;3.45;;
61085;SDS011;46967;48.876;2.136;2024-01-30T06:37:31;7.88;;;3.53;;
61085;SDS011;46967;48.876;2.136;2024-01-30T06:39:57;7.90;;;3.50;;
61085;SDS011;46967;48.876;2.136;2024-01-30T06:42:22;10.10;;;3.85;;
61085;SDS011;46967;48.876;2.136;2024-01-30T06:44:47;8.43;;;3.42;;
61085;SDS011;46967;48.876;2.136;2024-01-30T06:47:13;8.30;;;3.78;;
61085;SDS011;46967;48.876;2.136;2024-01-30T06:49:38;8.77;;;3.72;;
61085;SDS011;46967;48.876;2.136;2024-01-30T06:52:07;8.57;;;3.95;;
61085;SDS011;46967;48.876;2.136;2024-01-30T06:54:33;12.60;;;4.10;;
61085;SDS011;46967;48.876;2.136;2024-01-30T06:56:59;11.65;;;4.05;;
61085;SDS011;46967;48.876;2.136;2024-01-30T06:59:24;10.55;;;4.00;;
61085;SDS011;46967;48.876;2.136;2024-01-30T07:01:50;9.02;;;4.18;;
61085;SDS011;46967;48.876;2.136;2024-01-30T07:04:15;15.18;;;4.57;;
61085;SDS011;46967;48.876;2.136;2024-01-30T07:06:41;12.82;;;4.20;;
61085;SDS011;46967;48.876;2.136;2024-01-30T07:09:06;8.57;;;3.78;;
61085;SDS011;46967;48.876;2.136;2024-01-30T07:11:32;6.45;;;4.05;;
61085;SDS011;46967;48.876;2.136;2024-01-30T07:13:57;10.52;;;3.63;;
61085;SDS011;46967;48.876;2.136;2024-01-30T07:16:22;10.32;;;4.25;;
61085;SDS011;46967;48.876;2.136;2024-01-30T07:18:48;12.13;;;3.83;;
61085;SDS011;46967;48.876;2.136;2024-01-30T07:21:14;10.50;;;4.53;;
61085;SDS011;46967;48.876;2.136;2024-01-30T07:23:40;6.25;;;3.67;;
61085;SDS011;46967;48.876;2.136;2024-01-30T07:26:06;10.00;;;4.05;;
61085;SDS011;46967;48.876;2.136;2024-01-30T07:28:33;11.07;;;4.30;;
61085;SDS011;46967;48.876;2.136;2024-01-30T07:30:58;9.90;;;4.00;;
61085;SDS011;46967;48.876;2.136;2024-01-30T07:33:24;7.40;;;3.72;;
61085;SDS011;46967;48.876;2.136;2024-01-30T07:35:49;7.55;;;3.33;;
61085;SDS011;46967;48.876;2.136;2024-01-30T07:38:14;9.90;;;4.25;;
61085;SDS011;46967;48.876;2.136;2024-01-30T07:40:40;9.77;;;3.92;;
61085;SDS011;46967;48.876;2.136;2024-01-30T07:43:06;7.93;;;3.80;;
61085;SDS011;46967;48.876;2.136;2024-01-30T07:45:31;10.95;;;4.75;;
61085;SDS011;46967;48.876;2.136;2024-01-30T07:47:58;7.13;;;3.80;;
61085;SDS011;46967;48.876;2.136;2024-01-30T07:50:24;7.63;;;3.97;;
61085;SDS011;46967;48.876;2.136;2024-01-30T07:52:50;8.07;;;4.38;;
61085;SDS011;46967;48.876;2.136;2024-01-30T07:55:19;6.82;;;4.00;;
61085;SDS011;46967;48.876;2.136;2024-01-30T07:57:45;14.50;;;4.50;;
61085;SDS011;46967;48.876;2.136;2024-01-30T08:00:11;10.60;;;3.92;;
61085;SDS011;46967;48.876;2.136;2024-01-30T08:02:36;10.50;;;4.28;;
61085;SDS011;46967;48.876;2.136;2024-01-30T08:05:02;10.18;;;3.97;;
61085;SDS011;46967;48.876;2.136;2024-01-30T08:07:27;8.95;;;4.40;;
61085;SDS011;46967;48.876;2.136;2024-01-30T08:09:54;7.80;;;3.80;;
61085;SDS011;46967;48.876;2.136;2024-01-30T08:12:20;14.90;;;3.75;;
61085;SDS011;46967;48.876;2.136;2024-01-30T08:14:45;13.90;;;4.47;;
61085;SDS011;46967;48.876;2.136;2024-01-30T08:17:10;6.72;;;3.78;;
61085;SDS011;46967;48.876;2.136;2024-01-30T08:19:36;12.68;;;4.60;;
61085;SDS011;46967;48.876;2.136;2024-01-30T08:22:01;9.30;;;4.13;;
61085;SDS011;46967;48.876;2.136;2024-01-30T08:24:26;11.02;;;4.43;;
61085;SDS011;46967;48.876;2.136;2024-01-30T08:26:51;10.93;;;4.35;;
61085;SDS011;46967;48.876;2.136;2024-01-30T08:29:17;13.18;;;4.35;;
61085;SDS011;46967;48.876;2.136;2024-01-30T08:31:42;13.35;;;4.55;;
61085;SDS011;46967;48.876;2.136;2024-01-30T08:34:07;6.57;;;3.72;;
61085;SDS011;46967;48.876;2.136;2024-01-30T08:36:33;8.40;;;3.75;;
61085;SDS011;46967;48.876;2.136;2024-01-30T08:38:58;9.20;;;4.40;;
61085;SDS011;46967;48.876;2.136;2024-01-30T08:41:23;10.32;;;4.80;;
61085;SDS011;46967;48.876;2.136;2024-01-30T08:43:49;9.02;;;4.38;;
61085;SDS011;46967;48.876;2.136;2024-01-30T08:46:17;11.57;;;4.60;;
61085;SDS011;46967;48.876;2.136;2024-01-30T08:48:42;10.27;;;4.40;;
61085;SDS011;46967;48.876;2.136;2024-01-30T08:51:08;11.18;;;4.80;;
61085;SDS011;46967;48.876;2.136;2024-01-30T08:53:34;11.30;;;4.32;;
61085;SDS011;46967;48.876;2.136;2024-01-30T08:56:00;10.88;;;4.05;;
61085;SDS011;46967;48.876;2.136;2024-01-30T08:58:26;10.50;;;4.38;;
61085;SDS011;46967;48.876;2.136;2024-01-30T09:00:52;10.68;;;4.15;;
61085;SDS011;46967;48.876;2.136;2024-01-30T09:03:17;10.15;;;4.60;;
61085;SDS011;46967;48.876;2.136;2024-01-30T09:05:43;8.48;;;4.03;;
61085;SDS011;46967;48.876;2.136;2024-01-30T09:08:08;14.30;;;5.30;;
61085;SDS011;46967;48.876;2.136;2024-01-30T09:10:33;12.10;;;4.18;;
61085;SDS011;46967;48.876;2.136;2024-01-30T09:12:58;19.20;;;4.85;;
61085;SDS011;46967;48.876;2.136;2024-01-30T09:15:24;13.50;;;4.80;;
61085;SDS011;46967;48.876;2.136;2024-01-30T09:17:49;11.55;;;3.63;;
61085;SDS011;46967;48.876;2.136;2024-01-30T09:20:15;7.15;;;3.60;;
61085;SDS011;46967;48.876;2.136;2024-01-30T09:22:40;10.70;;;3.90;;
61085;SDS011;46967;48.876;2.136;2024-01-30T09:25:06;13.07;;;4.03;;
61085;SDS011;46967;48.876;2.136;2024-01-30T09:27:31;12.38;;;3.70;;
61085;SDS011;46967;48.876;2.136;2024-01-30T09:29:57;8.52;;;3.95;;
61085;SDS011;46967;48.876;2.136;2024-01-30T09:32:22;12.80;;;4.35;;
61085;SDS011;46967;48.876;2.136;2024-01-30T09:34:47;5.63;;;3.40;;
61085;SDS011;46967;48.876;2.136;2024-01-30T09:37:13;9.18;;;3.45;;
61085;SDS011;46967;48.876;2.136;2024-01-30T09:39:40;8.75;;;3.38;;
61085;SDS011;46967;48.876;2.136;2024-01-30T09:42:14;10.05;;;3.17;;
61085;SDS011;46967;48.876;2.136;2024-01-30T09:44:48;6.97;;;3.58;;
61085;SDS011;46967;48.876;2.136;2024-01-30T09:47:17;8.05;;;3.50;;
61085;SDS011;46967;48.876;2.136;2024-01-30T09:49:42;12.95;;;3.63;;
61085;SDS011;46967;48.876;2.136;2024-01-30T09:52:09;6.80;;;2.83;;
61085;SDS011;46967;48.876;2.136;2024-01-30T09:54:35;10.23;;;3.83;;
61085;SDS011;46967;48.876;2.136;2024-01-30T09:57:02;6.85;;;2.78;;
61085;SDS011;46967;48.876;2.136;2024-01-30T09:59:28;7.75;;;3.75;;
61085;SDS011;46967;48.876;2.136;2024-01-30T10:01:54;10.93;;;3.47;;
61085;SDS011;46967;48.876;2.136;2024-01-30T10:04:19;7.15;;;3.13;;
61085;SDS011;46967;48.876;2.136;2024-01-30T10:06:45;5.95;;;3.35;;
61085;SDS011;46967;48.876;2.136;2024-01-30T10:09:11;11.45;;;3.05;;
61085;SDS011;46967;48.876;2.136;2024-01-30T10:11:36;11.32;;;3.40;;
61085;SDS011;46967;48.876;2.136;2024-01-30T10:14:02;9.05;;;3.20;;
61085;SDS011;46967;48.876;2.136;2024-01-30T10:16:27;6.13;;;3.00;;
61085;SDS011;46967;48.876;2.136;2024-01-30T10:18:53;10.32;;;3.35;;
61085;SDS011;46967;48.876;2.136;2024-01-30T10:21:18;7.85;;;2.60;;
61085;SDS011;46967;48.876;2.136;2024-01-30T10:23:44;9.85;;;2.70;;
61085;SDS011;46967;48.876;2.136;2024-01-30T10:26:09;6.88;;;2.70;;
61085;SDS011;46967;48.876;2.136;2024-01-30T10:28:35;9.10;;;2.80;;
61085;SDS011;46967;48.876;2.136;2024-01-30T10:31:00;8.73;;;2.92;;
61085;SDS011;46967;48.876;2.136;2024-01-30T10:33:27;10.25;;;2.60;;
61085;SDS011;46967;48.876;2.136;2024-01-30T10:35:54;5.55;;;2.60;;
61085;SDS011;46967;48.876;2.136;2024-01-30T10:38:23;8.32;;;2.60;;
61085;SDS011;46967;48.876;2.136;2024-01-30T10:40:52;7.77;;;2.87;;
61085;SDS011;46967;48.876;2.136;2024-01-30T10:43:21;10.35;;;2.83;;
61085;SDS011;46967;48.876;2.136;2024-01-30T10:45:48;7.57;;;2.83;;
61085;SDS011;46967;48.876;2.136;2024-01-30T10:48:15;8.43;;;3.08;;
61085;SDS011;46967;48.876;2.136;2024-01-30T10:50:43;11.32;;;2.47;;
61085;SDS011;46967;48.876;2.136;2024-01-30T10:53:10;6.85;;;2.25;;
61085;SDS011;46967;48.876;2.136;2024-01-30T10:55:37;7.32;;;2.10;;
61085;SDS011;46967;48.876;2.136;2024-01-30T10:58:04;4.03;;;1.70;;
61085;SDS011;46967;48.876;2.136;2024-01-30T11:00:30;4.05;;;1.40;;
61085;SDS011;46967;48.876;2.136;2024-01-30T11:02:58;4.97;;;1.60;;
61085;SDS011;46967;48.876;2.136;2024-01-30T11:05:24;5.53;;;1.50;;
61085;SDS011;46967;48.876;2.136;2024-01-30T11:07:52;4.97;;;1.67;;
61085;SDS011;46967;48.876;2.136;2024-01-30T11:10:17;6.53;;;2.00;;
61085;SDS011;46967;48.876;2.136;2024-01-30T11:12:43;5.30;;;1.50;;
61085;SDS011;46967;48.876;2.136;2024-01-30T11:15:10;7.30;;;1.60;;
61085;SDS011;46967;48.876;2.136;2024-01-30T11:18:00;5.30;;;1.60;;
61085;SDS011;46967;48.876;2.136;2024-01-30T11:20:26;7.70;;;1.38;;
61085;SDS011;46967;48.876;2.136;2024-01-30T11:22:56;3.47;;;1.05;;
61085;SDS011;46967;48.876;2.136;2024-01-30T11:25:22;7.07;;;1.50;;
61085;SDS011;46967;48.876;2.136;2024-01-30T11:27:52;6.85;;;1.50;;
61085;SDS011;46967;48.876;2.136;2024-01-30T11:30:28;2.13;;;1.00;;
61085;SDS011;46967;48.876;2.136;2024-01-30T11:35:37;2.08;;;1.20;;
61085;SDS011;46967;48.876;2.136;2024-01-30T11:38:05;3.83;;;1.30;;
61085;SDS011;46967;48.876;2.136;2024-01-30T11:40:32;2.15;;;1.00;;
61085;SDS011;46967;48.876;2.136;2024-01-30T11:42:59;2.83;;;1.00;;
61085;SDS011;46967;48.876;2.136;2024-01-30T11:45:26;5.05;;;1.35;;
61085;SDS011;46967;48.876;2.136;2024-01-30T11:47:52;4.75;;;1.60;;
61085;SDS011;46967;48.876;2.136;2024-01-30T11:50:18;3.63;;;1.33;;
61085;SDS011;46967;48.876;2.136;2024-01-30T11:52:43;2.65;;;1.23;;
61085;SDS011;46967;48.876;2.136;2024-01-30T11:55:09;3.67;;;1.27;;
61085;SDS011;46967;48.876;2.136;2024-01-30T11:57:35;4.28;;;1.48;;
61085;SDS011;46967;48.876;2.136;2024-01-30T12:00:02;2.88;;;0.90;;
61085;SDS011;46967;48.876;2.136;2024-01-30T12:02:33;3.30;;;1.52;;
61085;SDS011;46967;48.876;2.136;2024-01-30T12:05:00;3.60;;;1.17;;
61085;SDS011;46967;48.876;2.136;2024-01-30T12:07:29;3.42;;;1.20;;
61085;SDS011;46967;48.876;2.136;2024-01-30T12:09:55;2.20;;;1.00;;
61085;SDS011;46967;48.876;2.136;2024-01-30T12:12:24;3.67;;;1.10;;
61085;SDS011;46967;48.876;2.136;2024-01-30T12:14:50;1.67;;;0.98;;
61085;SDS011;46967;48.876;2.136;2024-01-30T12:17:27;2.83;;;1.05;;
61085;SDS011;46967;48.876;2.136;2024-01-30T12:20:03;3.08;;;1.00;;
61085;SDS011;46967;48.876;2.136;2024-01-30T12:22:36;2.75;;;0.95;;
61085;SDS011;46967;48.876;2.136;2024-01-30T12:25:09;4.63;;;1.20;;
61085;SDS011;46967;48.876;2.136;2024-01-30T12:27:39;1.58;;;0.90;;
61085;SDS011;46967;48.876;2.136;2024-01-30T12:30:07;3.03;;;0.75;;
61085;SDS011;46967;48.876;2.136;2024-01-30T12:32:37;3.85;;;0.88;;
61085;SDS011;46967;48.876;2.136;2024-01-30T12:35:06;2.28;;;0.88;;
61085;SDS011;46967;48.876;2.136;2024-01-30T12:37:33;3.35;;;1.52;;
61085;SDS011;46967;48.876;2.136;2024-01-30T12:39:59;3.70;;;1.20;;
61085;SDS011;46967;48.876;2.136;2024-01-30T12:42:24;3.80;;;1.10;;
61085;SDS011;46967;48.876;2.136;2024-01-30T12:44:52;4.50;;;1.17;;
61085;SDS011;46967;48.876;2.136;2024-01-30T12:47:17;4.28;;;1.45;;
61085;SDS011;46967;48.876;2.136;2024-01-30T12:49:43;1.70;;;1.02;;
61085;SDS011;46967;48.876;2.136;2024-01-30T12:52:09;5.25;;;1.17;;
61085;SDS011;46967;48.876;2.136;2024-01-30T12:54:38;2.75;;;0.77;;
61085;SDS011;46967;48.876;2.136;2024-01-30T12:57:03;3.92;;;1.10;;
61085;SDS011;46967;48.876;2.136;2024-01-30T12:59:30;4.95;;;1.58;;
61085;SDS011;46967;48.876;2.136;2024-01-30T13:01:55;2.45;;;0.90;;
61085;SDS011;46967;48.876;2.136;2024-01-30T13:04:20;2.85;;;0.90;;
61085;SDS011;46967;48.876;2.136;2024-01-30T13:06:46;2.70;;;0.90;;
61085;SDS011;46967;48.876;2.136;2024-01-30T13:09:11;4.82;;;1.00;;
61085;SDS011;46967;48.876;2.136;2024-01-30T13:11:37;1.85;;;1.08;;
61085;SDS011;46967;48.876;2.136;2024-01-30T13:14:02;2.55;;;1.10;;
61085;SDS011;46967;48.876;2.136;2024-01-30T13:16:28;3.65;;;0.90;;
61085;SDS011;46967;48.876;2.136;2024-01-30T13:18:53;4.18;;;1.13;;
61085;SDS011;46967;48.876;2.136;2024-01-30T13:21:20;2.03;;;0.70;;
61085;SDS011;46967;48.876;2.136;2024-01-30T13:23:46;3.17;;;0.95;;
61085;SDS011;46967;48.876;2.136;2024-01-30T13:26:11;3.22;;;1.00;;
61085;SDS011;46967;48.876;2.136;2024-01-30T13:28:37;2.25;;;0.80;;
61085;SDS011;46967;48.876;2.136;2024-01-30T13:31:02;1.95;;;0.93;;
61085;SDS011;46967;48.876;2.136;2024-01-30T13:33:28;1.02;;;0.60;;
61085;SDS011;46967;48.876;2.136;2024-01-30T13:35:53;3.20;;;0.80;;
61085;SDS011;46967;48.876;2.136;2024-01-30T13:38:19;1.98;;;0.73;;
61085;SDS011;46967;48.876;2.136;2024-01-30T13:40:44;0.73;;;0.65;;
61085;SDS011;46967;48.876;2.136;2024-01-30T13:43:09;1.98;;;0.70;;
61085;SDS011;46967;48.876;2.136;2024-01-30T13:45:35;3.22;;;1.17;;
61085;SDS011;46967;48.876;2.136;2024-01-30T13:48:00;1.90;;;0.77;;
61085;SDS011;46967;48.876;2.136;2024-01-30T13:50:26;1.77;;;0.60;;
61085;SDS011;46967;48.876;2.136;2024-01-30T13:52:51;2.25;;;0.60;;
61085;SDS011;46967;48.876;2.136;2024-01-30T13:55:16;2.60;;;0.70;;
61085;SDS011;46967;48.876;2.136;2024-01-30T13:57:42;1.35;;;0.82;;
61085;SDS011;46967;48.876;2.136;2024-01-30T14:00:07;2.45;;;0.80;;
61085;SDS011;46967;48.876;2.136;2024-01-30T14:02:34;2.22;;;0.60;;
61085;SDS011;46967;48.876;2.136;2024-01-30T14:04:59;0.60;;;0.40;;
61085;SDS011;46967;48.876;2.136;2024-01-30T14:07:24;2.67;;;0.73;;
61085;SDS011;46967;48.876;2.136;2024-01-30T14:09:50;0.95;;;0.47;;
61085;SDS011;46967;48.876;2.136;2024-01-30T14:12:15;3.30;;;0.60;;
61085;SDS011;46967;48.876;2.136;2024-01-30T14:14:41;0.60;;;0.50;;
61085;SDS011;46967;48.876;2.136;2024-01-30T14:17:06;1.27;;;0.50;;
61085;SDS011;46967;48.876;2.136;2024-01-30T14:19:32;1.95;;;0.52;;
61085;SDS011;46967;48.876;2.136;2024-01-30T14:21:58;3.63;;;0.40;;
61085;SDS011;46967;48.876;2.136;2024-01-30T14:24:24;2.15;;;0.40;;
61085;SDS011;46967;48.876;2.136;2024-01-30T14:26:49;2.30;;;0.57;;
61085;SDS011;46967;48.876;2.136;2024-01-30T14:29:15;1.60;;;0.50;;
61085;SDS011;46967;48.876;2.136;2024-01-30T14:31:40;1.17;;;0.45;;
61085;SDS011;46967;48.876;2.136;2024-01-30T14:34:05;4.20;;;0.55;;
61085;SDS011;46967;48.876;2.136;2024-01-30T14:36:31;0.43;;;0.40;;
61085;SDS011;46967;48.876;2.136;2024-01-30T14:38:56;1.58;;;0.52;;
61085;SDS011;46967;48.876;2.136;2024-01-30T14:41:22;1.05;;;0.50;;